Time;durP1;ratioP1;P1;durP2;ratioP2;P2;SDS_P1;SDS_P2;PMS_P1;PMS_P2;Temp;Humidity;BMP_temperature;BMP_pressure;BME280_temperature;BME280_humidity;BME280_pressure;Samples;Min_cycle;Max_cycle;Signal;HPM_P1;HPM_P2
2022/08/29 00:01:48;;;;;;;9.02;3.53;;;15.40;99.90;;;;;;4952191;28;20568;-31
2022/08/29 00:04:13;;;;;;;5.90;3.22;;;15.40;99.90;;;;;;4945991;28;20077;-35
2022/08/29 00:06:40;;;;;;;6.05;3.45;;;15.40;99.90;;;;;;4956331;28;20039;-32
2022/08/29 00:09:05;;;;;;;4.78;2.85;;;15.40;99.90;;;;;;4958507;28;20082;-32
2022/08/29 00:11:31;;;;;;;5.72;2.95;;;15.40;99.90;;;;;;4948880;28;20575;-33
2022/08/29 00:13:58;;;;;;;8.52;3.20;;;15.40;99.90;;;;;;4952747;28;20118;-35
2022/08/29 00:16:23;;;;;;;6.85;3.17;;;15.40;99.90;;;;;;4937472;28;20071;-33
2022/08/29 00:18:49;;;;;;;6.47;3.90;;;15.40;99.90;;;;;;4951746;28;20525;-31
2022/08/29 00:21:15;;;;;;;5.97;3.42;;;15.30;99.90;;;;;;4955336;28;20047;-32
2022/08/29 00:23:44;;;;;;;7.60;3.83;;;15.40;99.90;;;;;;4953509;28;20042;-35
2022/08/29 00:26:10;;;;;;;6.00;3.17;;;15.30;99.90;;;;;;4946162;28;20075;-33
2022/08/29 00:28:35;;;;;;;7.60;3.20;;;15.30;99.90;;;;;;4952823;28;20075;-34
2022/08/29 00:31:02;;;;;;;6.93;3.10;;;15.40;99.90;;;;;;4942621;28;20048;-34
2022/08/29 00:33:28;;;;;;;7.40;3.08;;;15.40;99.90;;;;;;4943702;28;20071;-33
2022/08/29 00:35:53;;;;;;;6.85;3.17;;;15.40;99.90;;;;;;4947551;28;20031;-32
2022/08/29 00:38:19;;;;;;;5.32;2.95;;;15.30;99.90;;;;;;4948966;28;20479;-33
2022/08/29 00:40:51;;;;;;;6.30;3.50;;;15.30;99.90;;;;;;4954589;28;20034;-32
2022/08/29 00:43:20;;;;;;;6.35;3.53;;;15.30;99.90;;;;;;4954042;28;20046;-33
2022/08/29 00:45:54;;;;;;;6.55;3.45;;;15.30;99.90;;;;;;4945177;28;20035;-32
2022/08/29 00:48:20;;;;;;;6.22;3.50;;;15.30;99.90;;;;;;4949775;28;20036;-34
2022/08/29 00:50:52;;;;;;;6.45;3.22;;;15.30;99.90;;;;;;4929513;29;20167;-33
2022/08/29 00:53:27;;;;;;;8.45;3.55;;;15.30;99.90;;;;;;4946117;28;20044;-32
2022/08/29 00:55:53;;;;;;;5.40;3.08;;;15.30;99.90;;;;;;4955492;28;20042;-33
2022/08/29 00:58:31;;;;;;;4.82;3.70;;;15.30;99.90;;;;;;4951904;28;20035;-33
2022/08/29 01:00:57;;;;;;;6.25;3.30;;;15.30;99.90;;;;;;4946833;28;20452;-34
2022/08/29 01:03:24;;;;;;;5.15;3.50;;;15.30;99.90;;;;;;4948599;28;20043;-32
2022/08/29 01:05:50;;;;;;;7.28;3.33;;;15.20;99.90;;;;;;4950506;28;20036;-32
2022/08/29 01:08:16;;;;;;;5.93;3.58;;;15.30;99.90;;;;;;4960952;28;20374;-33
2022/08/29 01:13:33;;;;;;;5.32;3.17;;;15.30;99.90;;;;;;4943791;28;20110;-31
2022/08/29 01:16:01;;;;;;;6.35;3.60;;;15.20;99.90;;;;;;4968349;28;20119;-32
2022/08/29 01:18:31;;;;;;;5.65;3.70;;;15.20;99.90;;;;;;4946827;28;20050;-34
2022/08/29 01:21:20;;;;;;;6.68;3.70;;;15.20;99.90;;;;;;4947740;28;20473;-32
2022/08/29 01:24:12;;;;;;;7.57;3.42;;;15.20;99.90;;;;;;4964215;28;20050;-33
2022/08/29 01:26:39;;;;;;;7.90;3.65;;;15.20;99.90;;;;;;4952633;28;21287;-32
2022/08/29 01:29:05;;;;;;;6.68;3.78;;;15.20;99.90;;;;;;4943958;28;20039;-31
2022/08/29 01:31:40;;;;;;;9.80;3.67;;;15.20;99.90;;;;;;4946966;28;20074;-33
2022/08/29 01:34:07;;;;;;;7.60;3.50;;;15.20;99.90;;;;;;4950268;28;20449;-32
2022/08/29 01:36:46;;;;;;;6.43;3.33;;;15.20;99.90;;;;;;4954272;28;20027;-35
2022/08/29 01:39:12;;;;;;;7.32;3.97;;;15.20;99.90;;;;;;4954605;28;20039;-32
2022/08/29 01:41:40;;;;;;;7.18;3.53;;;15.20;99.90;;;;;;4954238;28;20039;-33
2022/08/29 01:44:13;;;;;;;7.47;3.25;;;15.20;99.90;;;;;;4951307;28;20039;-32
2022/08/29 01:46:39;;;;;;;6.28;3.60;;;15.20;99.90;;;;;;4965655;28;20055;-33
2022/08/29 01:49:08;;;;;;;7.65;3.70;;;15.20;99.90;;;;;;4946846;28;20039;-32
2022/08/29 01:51:36;;;;;;;8.13;3.60;;;15.20;99.90;;;;;;4946945;28;20131;-33
2022/08/29 01:54:04;;;;;;;7.45;3.80;;;15.20;99.90;;;;;;4953836;28;20493;-35
2022/08/29 01:56:32;;;;;;;8.93;3.67;;;15.10;99.90;;;;;;4946922;28;20031;-32
2022/08/29 01:59:00;;;;;;;5.68;3.50;;;15.10;99.90;;;;;;4970131;28;20045;-32
2022/08/29 02:01:31;;;;;;;7.38;3.50;;;15.10;99.90;;;;;;4949915;28;20089;-33
2022/08/29 02:03:57;;;;;;;7.15;3.72;;;15.10;99.90;;;;;;4956892;28;20077;-32
2022/08/29 02:06:27;;;;;;;6.15;3.85;;;15.10;99.90;;;;;;4974142;28;20381;-34
2022/08/29 02:08:53;;;;;;;6.15;3.97;;;15.10;99.90;;;;;;4951125;28;20139;-32
2022/08/29 02:11:20;;;;;;;6.68;3.65;;;15.10;99.90;;;;;;4957417;28;20081;-32
2022/08/29 02:13:52;;;;;;;6.57;3.75;;;15.10;99.90;;;;;;4967887;28;20039;-33
2022/08/29 02:16:18;;;;;;;7.32;4.05;;;15.10;99.90;;;;;;4951530;28;20043;-31
2022/08/29 02:18:44;;;;;;;7.03;3.88;;;15.10;99.90;;;;;;4958106;28;20042;-34
2022/08/29 02:21:15;;;;;;;7.55;3.85;;;15.10;99.90;;;;;;4955410;28;20480;-32
2022/08/29 02:23:41;;;;;;;8.13;3.78;;;15.00;99.90;;;;;;4969289;28;20043;-32
2022/08/29 02:26:08;;;;;;;7.43;3.95;;;15.00;99.90;;;;;;4954459;28;20039;-34
2022/08/29 02:28:35;;;;;;;6.00;3.92;;;15.00;99.90;;;;;;4959869;28;20039;-31
2022/08/29 02:31:02;;;;;;;5.50;3.70;;;15.00;99.90;;;;;;4954994;28;20078;-32
2022/08/29 02:33:28;;;;;;;6.55;4.20;;;15.00;99.90;;;;;;4954018;29;20063;-31
2022/08/29 02:35:54;;;;;;;6.38;3.95;;;15.00;99.90;;;;;;4961646;28;20041;-32
2022/08/29 02:38:19;;;;;;;5.93;3.70;;;15.00;99.90;;;;;;4947277;28;20122;-31
2022/08/29 02:40:47;;;;;;;6.78;4.43;;;15.00;99.90;;;;;;4963097;28;20059;-32
2022/08/29 02:43:15;;;;;;;5.65;4.13;;;15.00;99.90;;;;;;4949401;28;20516;-32
2022/08/29 02:45:42;;;;;;;7.97;4.53;;;15.00;99.90;;;;;;4938812;29;20040;-33
2022/08/29 02:48:10;;;;;;;6.32;3.90;;;14.90;99.90;;;;;;4931739;28;20123;-34
2022/08/29 02:50:44;;;;;;;4.95;3.88;;;14.90;99.90;;;;;;4940992;29;20128;-31
2022/08/29 02:53:12;;;;;;;7.78;3.92;;;14.90;99.90;;;;;;4955000;28;20051;-31
2022/08/29 02:55:37;;;;;;;6.60;4.05;;;14.90;99.90;;;;;;4953612;28;20039;-31
2022/08/29 02:58:04;;;;;;;6.38;3.70;;;14.90;99.90;;;;;;4955121;28;20505;-33
2022/08/29 03:00:32;;;;;;;6.20;3.65;;;14.90;99.90;;;;;;4967392;28;20043;-32
2022/08/29 03:02:58;;;;;;;5.65;3.78;;;14.90;99.90;;;;;;4951656;28;20051;-31
2022/08/29 03:05:28;;;;;;;7.05;3.78;;;15.00;99.90;;;;;;4947237;28;20444;-33
2022/08/29 03:07:58;;;;;;;7.45;4.03;;;15.00;99.90;;;;;;4971536;28;20078;-32
2022/08/29 03:10:24;;;;;;;6.93;3.90;;;14.90;99.90;;;;;;4955831;28;20053;-32
2022/08/29 03:12:50;;;;;;;5.95;3.80;;;15.00;99.90;;;;;;4959858;28;20548;-32
2022/08/29 03:15:17;;;;;;;7.72;4.28;;;14.90;99.90;;;;;;4946487;28;20127;-30
2022/08/29 03:17:44;;;;;;;7.38;4.10;;;14.90;99.90;;;;;;4948009;28;20122;-30
2022/08/29 03:20:14;;;;;;;8.43;3.63;;;14.90;99.90;;;;;;4947776;28;20031;-30
2022/08/29 03:22:40;;;;;;;5.25;3.95;;;14.90;99.90;;;;;;4947686;28;20504;-30
2022/08/29 03:25:07;;;;;;;5.70;3.50;;;14.90;99.90;;;;;;4955206;28;20093;-30
2022/08/29 03:27:34;;;;;;;7.28;4.15;;;14.90;99.90;;;;;;4946546;28;20501;-30
2022/08/29 03:30:00;;;;;;;6.45;3.95;;;14.90;99.90;;;;;;4942011;28;20071;-31
2022/08/29 03:32:27;;;;;;;8.43;4.30;;;14.90;99.90;;;;;;4955965;28;20094;-29
2022/08/29 03:34:53;;;;;;;11.38;4.45;;;14.90;99.90;;;;;;4951308;28;20035;-30
2022/08/29 03:37:19;;;;;;;7.40;4.10;;;14.90;99.90;;;;;;4956503;28;20089;-30
2022/08/29 03:39:45;;;;;;;5.97;4.07;;;14.90;99.90;;;;;;4953192;28;20038;-30
2022/08/29 03:42:12;;;;;;;8.20;4.45;;;14.90;99.90;;;;;;4944923;28;20040;-29
2022/08/29 03:44:40;;;;;;;5.47;4.07;;;14.90;99.90;;;;;;4942346;28;20135;-30
2022/08/29 03:47:06;;;;;;;6.93;4.13;;;14.90;99.90;;;;;;4942910;28;20047;-31
2022/08/29 03:49:33;;;;;;;6.97;3.53;;;14.80;99.90;;;;;;4968636;28;20413;-29
2022/08/29 03:51:59;;;;;;;5.97;3.72;;;14.80;99.90;;;;;;4954768;28;20472;-30
2022/08/29 03:54:26;;;;;;;9.00;4.38;;;14.80;99.90;;;;;;4951080;28;20043;-30
2022/08/29 03:56:53;;;;;;;8.43;3.90;;;14.70;99.90;;;;;;4958427;28;20031;-29
2022/08/29 03:59:19;;;;;;;6.35;3.80;;;14.70;99.90;;;;;;4946262;28;20055;-30
2022/08/29 04:01:48;;;;;;;7.40;3.85;;;14.60;99.90;;;;;;4939486;28;20054;-29
2022/08/29 04:07:00;;;;;;;7.30;4.10;;;14.60;99.90;;;;;;4947654;28;20051;-31
2022/08/29 04:09:27;;;;;;;7.15;4.07;;;14.50;99.90;;;;;;4948746;28;20054;-30
2022/08/29 04:11:53;;;;;;;7.20;3.80;;;14.50;99.90;;;;;;4949806;28;20046;-29
2022/08/29 04:14:19;;;;;;;6.38;3.97;;;14.50;99.90;;;;;;4945285;28;20496;-31
2022/08/29 04:16:49;;;;;;;8.57;4.07;;;14.50;99.90;;;;;;4956879;28;20039;-30
2022/08/29 04:19:19;;;;;;;9.57;4.43;;;14.40;99.90;;;;;;4949889;28;20023;-30
2022/08/29 04:21:47;;;;;;;6.13;3.38;;;14.40;99.90;;;;;;4935735;29;20054;-30
2022/08/29 04:24:14;;;;;;;6.25;3.90;;;14.40;99.90;;;;;;4953906;28;20062;-30
2022/08/29 04:26:40;;;;;;;9.00;4.72;;;14.40;99.90;;;;;;4953487;28;20043;-30
2022/08/29 04:29:08;;;;;;;5.90;3.95;;;14.40;99.90;;;;;;4958901;28;20448;-31
2022/08/29 04:31:35;;;;;;;6.25;3.95;;;14.40;99.90;;;;;;4948416;28;20095;-30
2022/08/29 04:34:02;;;;;;;7.05;3.88;;;14.40;99.90;;;;;;4956596;28;20043;-30
2022/08/29 04:36:28;;;;;;;5.88;4.15;;;14.40;99.90;;;;;;4952837;28;20385;-32
2022/08/29 04:38:54;;;;;;;5.47;3.45;;;14.40;99.90;;;;;;4955546;28;20038;-32
2022/08/29 04:41:20;;;;;;;5.50;3.80;;;14.40;99.90;;;;;;4950937;28;20050;-32
2022/08/29 04:43:47;;;;;;;7.40;3.75;;;14.40;99.90;;;;;;4933231;29;20040;-31
2022/08/29 04:46:15;;;;;;;6.32;3.83;;;14.40;99.90;;;;;;4933069;29;20039;-30
2022/08/29 04:48:40;;;;;;;8.80;3.80;;;14.40;99.90;;;;;;4934130;29;20083;-30
2022/08/29 04:51:06;;;;;;;7.13;4.30;;;14.40;99.90;;;;;;4932923;29;20075;-30
2022/08/29 04:53:32;;;;;;;9.63;4.32;;;14.40;99.90;;;;;;4933722;29;20039;-29
2022/08/29 04:56:05;;;;;;;5.65;4.10;;;14.40;99.90;;;;;;4933238;29;20094;-30
2022/08/29 04:58:31;;;;;;;6.78;4.38;;;14.40;99.90;;;;;;4933976;29;20043;-30
2022/08/29 05:00:57;;;;;;;8.55;3.72;;;14.50;99.90;;;;;;4933672;29;20394;-29
2022/08/29 05:03:23;;;;;;;7.38;3.63;;;14.50;99.90;;;;;;4933174;29;20040;-30
2022/08/29 05:06:06;;;;;;;7.57;4.70;;;14.50;99.90;;;;;;4938878;29;20118;-30
2022/08/29 05:08:34;;;;;;;7.53;3.90;;;14.50;99.90;;;;;;4952451;29;20043;-30
2022/08/29 05:11:05;;;;;;;6.03;3.83;;;14.50;99.90;;;;;;4952432;29;20046;-30
2022/08/29 05:13:32;;;;;;;7.38;3.55;;;14.40;99.90;;;;;;4937673;28;20051;-32
2022/08/29 05:15:58;;;;;;;7.55;3.95;;;14.40;99.90;;;;;;4949534;28;20043;-33
2022/08/29 05:18:25;;;;;;;8.85;3.92;;;14.50;99.90;;;;;;4945249;28;20497;-30
2022/08/29 05:20:50;;;;;;;6.85;4.03;;;14.50;99.90;;;;;;4960379;28;20034;-30
2022/08/29 05:23:17;;;;;;;7.07;4.05;;;14.50;99.90;;;;;;4949353;28;20560;-30
2022/08/29 05:25:44;;;;;;;7.70;4.57;;;14.60;99.90;;;;;;4955014;28;20403;-30
2022/08/29 05:28:11;;;;;;;7.78;4.38;;;14.60;99.90;;;;;;4955724;28;20031;-32
2022/08/29 05:30:40;;;;;;;10.63;4.50;;;14.60;99.90;;;;;;4954213;28;20542;-31
2022/08/29 05:33:07;;;;;;;7.10;4.13;;;14.60;99.90;;;;;;4933074;29;20463;-30
2022/08/29 05:35:34;;;;;;;8.00;4.28;;;14.70;99.90;;;;;;4960958;28;20437;-31
2022/08/29 05:38:03;;;;;;;6.53;4.10;;;14.80;99.90;;;;;;4944685;28;20046;-30
2022/08/29 05:40:28;;;;;;;7.70;4.28;;;14.90;99.90;;;;;;4951521;28;20424;-30
2022/08/29 05:42:54;;;;;;;10.70;4.47;;;15.00;99.90;;;;;;4947420;28;20118;-32
2022/08/29 05:45:20;;;;;;;9.90;4.30;;;15.00;99.90;;;;;;4944921;28;20042;-30
2022/08/29 05:47:46;;;;;;;5.93;4.13;;;15.10;99.90;;;;;;4949057;28;20075;-31
2022/08/29 05:50:15;;;;;;;8.18;4.25;;;15.20;99.90;;;;;;4944048;28;20472;-33
2022/08/29 05:52:42;;;;;;;7.20;4.22;;;15.30;99.90;;;;;;4939937;28;20036;-33
2022/08/29 05:55:08;;;;;;;10.00;4.18;;;15.40;99.90;;;;;;4947918;28;20078;-31
2022/08/29 05:57:33;;;;;;;6.97;3.95;;;15.40;99.90;;;;;;4944348;28;20078;-33
2022/08/29 05:59:59;;;;;;;8.38;4.30;;;15.60;99.90;;;;;;4951701;28;20071;-31
2022/08/29 06:02:25;;;;;;;8.80;4.65;;;15.60;99.90;;;;;;4949785;28;20420;-31
2022/08/29 06:04:52;;;;;;;7.78;4.00;;;15.70;99.90;;;;;;4953859;28;20045;-31
2022/08/29 06:07:18;;;;;;;8.88;4.43;;;15.70;99.90;;;;;;4950379;28;20458;-31
2022/08/29 06:09:44;;;;;;;7.90;4.72;;;15.80;99.90;;;;;;4954178;28;20148;-32
2022/08/29 06:12:12;;;;;;;7.10;4.88;;;15.80;99.90;;;;;;4945964;28;20035;-31
2022/08/29 06:14:38;;;;;;;7.50;4.05;;;15.90;99.90;;;;;;4946406;28;20130;-31
2022/08/29 06:17:05;;;;;;;7.55;4.47;;;16.00;99.90;;;;;;4944892;28;20032;-30
2022/08/29 06:19:33;;;;;;;7.00;4.20;;;16.00;99.90;;;;;;4944358;28;20405;-31
2022/08/29 06:22:02;;;;;;;7.25;4.30;;;16.00;99.90;;;;;;4951510;28;20490;-32
2022/08/29 06:24:29;;;;;;;8.45;4.25;;;16.10;99.90;;;;;;4935101;29;20086;-31
2022/08/29 06:26:55;;;;;;;9.20;4.82;;;16.20;99.90;;;;;;4945425;28;20039;-30
2022/08/29 06:29:21;;;;;;;7.45;4.07;;;16.20;99.90;;;;;;4952492;28;20039;-32
2022/08/29 06:31:46;;;;;;;7.78;4.47;;;16.20;99.90;;;;;;4948432;28;20043;-32
2022/08/29 06:34:12;;;;;;;10.45;5.00;;;16.20;99.90;;;;;;4951837;28;20188;-33
2022/08/29 06:36:38;;;;;;;9.07;4.15;;;16.20;99.90;;;;;;4948965;28;20039;-32
2022/08/29 06:39:07;;;;;;;7.32;5.28;;;16.30;99.90;;;;;;4945451;28;20043;-32
2022/08/29 06:41:34;;;;;;;8.25;4.72;;;16.30;99.90;;;;;;4952325;28;20031;-32
2022/08/29 06:44:00;;;;;;;8.57;4.45;;;16.40;99.90;;;;;;4955154;28;20125;-32
2022/08/29 06:46:36;;;;;;;10.95;4.90;;;16.40;99.90;;;;;;4952134;28;20421;-31
2022/08/29 06:49:05;;;;;;;11.13;5.20;;;16.50;99.90;;;;;;4945985;28;20042;-32
2022/08/29 06:51:32;;;;;;;5.95;4.45;;;16.60;99.90;;;;;;4945194;28;20039;-32
2022/08/29 06:54:06;;;;;;;6.90;4.55;;;16.60;99.90;;;;;;4942371;28;20051;-32
2022/08/29 06:56:32;;;;;;;7.93;4.55;;;16.70;99.90;;;;;;4952823;28;20039;-31
2022/08/29 06:58:58;;;;;;;6.20;4.82;;;16.60;99.90;;;;;;4946697;28;20110;-31
2022/08/29 07:01:25;;;;;;;5.03;4.28;;;16.70;99.90;;;;;;4949870;28;20043;-30
2022/08/29 07:03:55;;;;;;;6.13;4.05;;;16.80;99.90;;;;;;4955135;28;20160;-31
2022/08/29 07:06:22;;;;;;;7.78;4.85;;;16.80;99.90;;;;;;4952651;28;20054;-30
2022/08/29 07:08:49;;;;;;;6.88;4.72;;;16.90;99.90;;;;;;4953304;28;20058;-30
2022/08/29 07:11:15;;;;;;;7.65;3.70;;;17.00;99.90;;;;;;4952186;28;20098;-30
2022/08/29 07:13:41;;;;;;;6.43;4.00;;;17.10;99.90;;;;;;4946899;28;20039;-30
2022/08/29 07:16:15;;;;;;;7.88;3.92;;;17.10;99.90;;;;;;4940964;28;20485;-30
2022/08/29 07:18:44;;;;;;;;;;;17.20;99.90;;;;;;4962044;28;20089;-30
2022/08/29 07:21:15;;;;;;;8.07;4.22;;;17.40;99.90;;;;;;4952074;28;19973;-30
2022/08/29 07:23:41;;;;;;;8.85;4.05;;;17.40;99.90;;;;;;4952083;28;20452;-31
2022/08/29 07:26:10;;;;;;;7.93;3.55;;;17.60;99.90;;;;;;4957281;28;20141;-30
2022/08/29 07:28:37;;;;;;;5.93;3.67;;;17.70;99.90;;;;;;4949909;28;20079;-30
2022/08/29 07:31:03;;;;;;;7.55;3.60;;;17.70;99.90;;;;;;4941647;28;20110;-31
2022/08/29 07:33:30;;;;;;;7.13;4.13;;;17.80;99.90;;;;;;4955276;28;20052;-31
2022/08/29 07:35:57;;;;;;;10.77;3.88;;;17.80;99.90;;;;;;4968087;28;20062;-30
2022/08/29 07:38:23;;;;;;;6.88;3.55;;;17.90;99.90;;;;;;4949555;28;20039;-30
2022/08/29 07:40:57;;;;;;;8.27;3.67;;;17.90;99.90;;;;;;4951328;28;20046;-30
2022/08/29 07:43:23;;;;;;;10.88;4.60;;;18.10;99.90;;;;;;4964745;28;20123;-32
2022/08/29 07:45:49;;;;;;;7.32;3.70;;;18.20;99.90;;;;;;4951351;28;20114;-31
2022/08/29 07:48:15;;;;;;;6.95;3.92;;;18.40;99.90;;;;;;4962301;28;20540;-30
2022/08/29 07:50:41;;;;;;;6.85;3.53;;;18.60;99.90;;;;;;4951854;28;20083;-31
2022/08/29 07:53:07;;;;;;;9.73;3.47;;;18.70;99.90;;;;;;4946711;28;20397;-30
2022/08/29 07:55:33;;;;;;;6.47;3.88;;;18.70;99.90;;;;;;4960111;28;20036;-31
2022/08/29 07:57:58;;;;;;;6.85;3.30;;;18.70;99.90;;;;;;4950980;28;20039;-29
2022/08/29 08:00:24;;;;;;;8.48;3.50;;;18.80;99.90;;;;;;4951501;28;20039;-32
2022/08/29 08:02:50;;;;;;;8.57;3.42;;;18.90;99.90;;;;;;4948037;28;20110;-32
2022/08/29 08:05:16;;;;;;;7.78;3.38;;;18.90;99.90;;;;;;4962277;28;20046;-30
2022/08/29 08:07:42;;;;;;;6.35;3.30;;;19.10;99.90;;;;;;4948581;28;20044;-31
2022/08/29 08:10:15;;;;;;;5.30;3.20;;;19.30;99.90;;;;;;4959311;28;20039;-31
2022/08/29 08:12:43;;;;;;;8.82;3.45;;;19.40;99.90;;;;;;4959400;28;20038;-30
2022/08/29 08:15:10;;;;;;;5.18;2.83;;;19.60;99.90;;;;;;4963156;28;20397;-31
2022/08/29 08:27:10;;;;;;;7.60;2.97;;;19.80;99.90;;;;;;5017021;28;20037;-32
2022/08/29 08:29:36;;;;;;;7.13;2.80;;;20.00;99.90;;;;;;5004780;28;20479;-31
2022/08/29 08:32:02;;;;;;;9.98;3.60;;;20.20;99.90;;;;;;4991614;28;20054;-31
2022/08/29 08:34:29;;;;;;;8.32;2.90;;;20.40;99.90;;;;;;4991576;28;20042;-31
2022/08/29 08:36:55;;;;;;;8.45;3.08;;;20.50;99.90;;;;;;4993968;28;20046;-31
2022/08/29 08:39:20;;;;;;;6.45;2.90;;;20.70;99.90;;;;;;4986637;28;20158;-32
2022/08/29 08:41:58;;;;;;;6.07;2.75;;;20.90;99.90;;;;;;4989705;28;20057;-33
2022/08/29 08:45:05;;;;;;;7.05;3.10;;;21.00;99.90;;;;;;5002672;28;20034;-32
2022/08/29 08:47:55;;;;;;;5.47;2.67;;;21.10;99.90;;;;;;4991100;28;20383;-32
2022/08/29 08:50:56;;;;;;;6.57;2.80;;;21.20;99.90;;;;;;4990881;28;20380;-32
2022/08/29 08:53:43;;;;;;;6.72;2.72;;;21.40;99.90;;;;;;4982923;28;20057;-32
2022/08/29 08:56:31;;;;;;;5.72;2.88;;;21.50;99.90;;;;;;5004006;28;20475;-31
2022/08/29 08:59:04;;;;;;;5.13;2.80;;;21.60;99.90;;;;;;5005209;28;20041;-30
2022/08/29 09:01:38;;;;;;;5.65;2.90;;;21.60;99.90;;;;;;5015674;28;20045;-30
2022/08/29 09:04:38;;;;;;;6.55;3.00;;;21.60;99.90;;;;;;5008559;28;20045;-31
2022/08/29 09:07:56;;;;;;;6.60;2.58;;;21.70;99.90;;;;;;4942783;28;20054;-30
2022/08/29 09:10:27;;;;;;;4.68;2.70;;;21.80;99.90;;;;;;4940267;28;20090;-30
2022/08/29 09:13:24;;;;;;;6.68;2.47;;;21.90;99.90;;;;;;4998122;28;20050;-30
2022/08/29 09:15:53;;;;;;;5.65;2.50;;;21.80;99.90;;;;;;4999267;28;20068;-31
2022/08/29 09:18:38;;;;;;;7.15;3.13;;;22.00;99.90;;;;;;4999581;28;20038;-31
2022/08/29 09:21:12;;;;;;;7.03;2.63;;;22.10;99.90;;;;;;5009132;28;20038;-32
2022/08/29 09:23:45;;;;;;;5.00;2.55;;;22.30;99.90;;;;;;4996030;28;20034;-30
2022/08/29 09:26:14;;;;;;;7.25;3.10;;;22.40;99.90;;;;;;5009009;28;20470;-31
2022/08/29 09:28:40;;;;;;;4.88;2.60;;;22.70;99.90;;;;;;5001105;28;20040;-30
2022/08/29 09:31:23;;;;;;;6.68;2.90;;;22.80;99.90;;;;;;5006298;28;20391;-31
2022/08/29 09:33:57;;;;;;;7.80;2.80;;;22.70;99.90;;;;;;4978694;28;20068;-31
2022/08/29 09:36:35;;;;;;;6.30;2.90;;;22.70;99.90;;;;;;4998905;28;20048;-30
2022/08/29 09:39:16;;;;;;;11.68;3.42;;;22.70;99.90;;;;;;5015162;28;20042;-31
2022/08/29 09:41:44;;;;;;;5.47;2.63;;;23.00;99.90;;;;;;4998572;28;20038;-31
2022/08/29 09:44:34;;;;;;;6.20;2.50;;;23.30;99.90;;;;;;4997601;28;20045;-31
2022/08/29 09:47:18;;;;;;;8.85;2.90;;;23.50;99.90;;;;;;4982226;28;20050;-31
2022/08/29 09:50:00;;;;;;;;;;;23.60;99.90;;;;;;4993387;28;20538;-31
2022/08/29 09:52:26;;;;;;;5.80;2.67;;;23.30;99.90;;;;;;5018549;28;20012;-31
2022/08/29 09:54:52;;;;;;;8.00;3.17;;;23.30;99.90;;;;;;4997376;28;20112;-31
2022/08/29 09:57:18;;;;;;;5.93;2.92;;;23.40;99.90;;;;;;4989232;28;20491;-30
2022/08/29 10:00:10;;;;;;;7.80;2.97;;;23.40;99.90;;;;;;5014601;28;20084;-31
2022/08/29 10:02:44;;;;;;;3.90;2.70;;;23.60;99.90;;;;;;5000578;28;20402;-31
2022/08/29 10:05:28;;;;;;;5.18;2.53;;;23.90;99.90;;;;;;4999358;28;20080;-31
2022/08/29 10:07:54;;;;;;;5.57;3.03;;;24.10;99.90;;;;;;5016267;28;20034;-31
2022/08/29 10:10:21;;;;;;;6.78;2.88;;;24.50;99.90;;;;;;4997431;28;20030;-32
2022/08/29 10:13:21;;;;;;;6.35;3.00;;;24.80;99.90;;;;;;5006241;28;20064;-31
2022/08/29 10:15:50;;;;;;;5.28;2.85;;;25.20;99.90;;;;;;5004019;28;20033;-30
2022/08/29 10:18:43;;;;;;;5.68;3.00;;;25.40;99.90;;;;;;4997793;28;20065;-31
2022/08/29 10:21:28;;;;;;;8.73;3.05;;;25.50;96.60;;;;;;5006881;28;20088;-31
2022/08/29 10:24:24;;;;;;;4.30;2.58;;;25.80;98.90;;;;;;5007525;28;20038;-31
2022/08/29 10:27:03;;;;;;;4.60;2.67;;;26.50;97.70;;;;;;5007124;28;20037;-32
2022/08/29 10:29:38;;;;;;;7.50;3.38;;;26.90;94.40;;;;;;4998185;28;20033;-32
2022/08/29 10:32:24;;;;;;;7.05;2.72;;;27.30;86.80;;;;;;4987629;28;20642;-31
2022/08/29 10:34:53;;;;;;;4.93;2.47;;;27.90;72.60;;;;;;4980014;28;20603;-32
2022/08/29 10:37:36;;;;;;;5.47;2.60;;;28.00;76.00;;;;;;5006700;28;20029;-31
2022/08/29 10:40:10;;;;;;;7.65;3.03;;;27.70;71.30;;;;;;4983689;28;20041;-31
2022/08/29 10:42:40;;;;;;;4.65;2.67;;;27.10;77.40;;;;;;5025570;28;20080;-30
2022/08/29 10:45:24;;;;;;;5.85;2.53;;;26.60;79.60;;;;;;5015510;28;20038;-31
2022/08/29 10:48:00;;;;;;;5.43;2.47;;;26.20;77.00;;;;;;4996729;28;20029;-31
2022/08/29 10:50:47;;;;;;;7.75;3.05;;;25.90;87.00;;;;;;5004343;28;20510;-31
2022/08/29 10:53:23;;;;;;;6.75;2.83;;;25.50;87.40;;;;;;4996329;28;20042;-34
2022/08/29 10:55:49;;;;;;;5.05;2.80;;;25.30;88.60;;;;;;5007269;28;20041;-30
2022/08/29 10:58:38;;;;;;;7.10;3.20;;;24.90;91.00;;;;;;4996361;28;20034;-31
2022/08/29 11:01:20;;;;;;;7.15;3.08;;;24.80;93.50;;;;;;4943039;28;20487;-31
2022/08/29 11:04:15;;;;;;;5.10;2.95;;;24.80;93.20;;;;;;4972139;28;20045;-31
2022/08/29 11:06:57;;;;;;;5.57;3.15;;;24.90;93.70;;;;;;5009819;28;20136;-31
2022/08/29 11:09:32;;;;;;;5.70;2.80;;;24.90;90.50;;;;;;5007925;28;20041;-31
2022/08/29 11:12:04;;;;;;;4.65;3.05;;;25.00;91.30;;;;;;4997732;28;20300;-32
2022/08/29 11:14:39;;;;;;;7.82;3.00;;;25.00;92.30;;;;;;4997099;28;20037;-29
2022/08/29 11:17:09;;;;;;;7.03;3.78;;;25.20;93.40;;;;;;4988096;28;20396;-30
2022/08/29 11:20:10;;;;;;;4.30;2.85;;;25.20;92.30;;;;;;4998727;28;20445;-30
2022/08/29 11:22:41;;;;;;;6.32;2.92;;;25.20;90.90;;;;;;4987687;28;20037;-30
2022/08/29 11:25:09;;;;;;;3.85;2.95;;;25.20;93.80;;;;;;4989108;28;20045;-29
2022/08/29 11:27:56;;;;;;;7.47;2.95;;;25.30;92.90;;;;;;4987102;28;20045;-30
2022/08/29 11:30:30;;;;;;;7.93;3.40;;;25.50;93.00;;;;;;4994741;28;20049;-31
2022/08/29 11:33:38;;;;;;;6.30;3.38;;;25.70;91.30;;;;;;4989193;28;20140;-30
2022/08/29 11:36:38;;;;;;;7.75;3.38;;;25.70;92.60;;;;;;5001930;28;20048;-30
2022/08/29 11:39:13;;;;;;;8.32;3.13;;;25.70;93.00;;;;;;5006355;28;20042;-30
2022/08/29 11:41:47;;;;;;;8.45;3.30;;;25.60;92.50;;;;;;4987979;28;20045;-30
2022/08/29 11:44:33;;;;;;;10.70;3.78;;;25.40;90.50;;;;;;4984550;28;20038;-30
2022/08/29 11:47:37;;;;;;;5.72;3.00;;;25.10;90.90;;;;;;4989778;28;20084;-31
2022/08/29 11:50:23;;;;;;;;;;;24.90;91.10;;;;;;4976453;28;20042;-30
2022/08/29 11:52:54;;;;;;;8.55;3.83;;;24.70;93.00;;;;;;4993466;28;20020;-30
2022/08/29 11:55:34;;;;;;;6.50;3.70;;;24.50;95.00;;;;;;4985605;28;20037;-30
2022/08/29 11:58:23;;;;;;;6.00;2.90;;;24.40;94.70;;;;;;5008182;28;20549;-32
2022/08/29 12:00:53;;;;;;;5.95;3.40;;;24.50;94.30;;;;;;4994087;28;20042;-31
2022/08/29 12:03:32;;;;;;;7.20;3.35;;;24.60;95.70;;;;;;5011371;28;20124;-31
2022/08/29 12:06:09;;;;;;;9.38;3.67;;;24.70;97.60;;;;;;4993544;28;20429;-30
2022/08/29 12:08:58;;;;;;;7.05;3.65;;;24.70;95.90;;;;;;4999206;28;20124;-31
2022/08/29 12:11:57;;;;;;;7.18;3.47;;;24.70;97.90;;;;;;5004688;28;20191;-30
2022/08/29 12:14:34;;;;;;;7.82;3.67;;;24.90;98.70;;;;;;5014690;28;20037;-30
2022/08/29 12:17:02;;;;;;;8.45;4.43;;;25.20;97.50;;;;;;4999841;28;20508;-31
2022/08/29 12:19:47;;;;;;;6.80;3.50;;;25.60;96.50;;;;;;4995002;28;20470;-31
2022/08/29 12:22:50;;;;;;;10.65;4.60;;;25.90;95.00;;;;;;5010807;28;20041;-31
2022/08/29 12:25:30;;;;;;;5.53;3.78;;;26.10;94.80;;;;;;4989078;28;20487;-31
2022/08/29 12:28:05;;;;;;;4.97;3.28;;;26.00;92.60;;;;;;5004263;28;20491;-30
2022/08/29 12:30:41;;;;;;;7.65;3.35;;;25.90;92.30;;;;;;4994796;28;20096;-31
2022/08/29 12:33:35;;;;;;;7.88;3.85;;;25.90;93.30;;;;;;5014889;28;20049;-31
2022/08/29 12:36:16;;;;;;;6.30;3.80;;;26.00;91.50;;;;;;4998723;28;20080;-31
2022/08/29 12:38:49;;;;;;;7.93;3.78;;;25.90;91.70;;;;;;5011068;28;20044;-30
2022/08/29 12:41:30;;;;;;;8.88;3.55;;;25.70;91.70;;;;;;5018062;28;20052;-31
2022/08/29 12:44:00;;;;;;;6.30;3.05;;;25.70;90.00;;;;;;5018550;28;20501;-31
2022/08/29 12:46:37;;;;;;;9.50;3.55;;;25.50;91.20;;;;;;5017843;28;20048;-30
2022/08/29 12:49:29;;;;;;;7.32;3.40;;;25.40;90.70;;;;;;5018426;28;20041;-31
2022/08/29 12:52:01;;;;;;;5.35;3.00;;;25.30;92.00;;;;;;5017921;28;20077;-31
2022/08/29 12:54:34;;;;;;;7.25;3.40;;;25.20;92.20;;;;;;5016384;28;20041;-31
2022/08/29 12:57:01;;;;;;;7.73;3.13;;;25.00;92.50;;;;;;5016632;28;20044;-30
2022/08/29 12:59:27;;;;;;;5.22;2.92;;;24.80;91.30;;;;;;5033981;28;20034;-31
2022/08/29 13:01:55;;;;;;;6.53;3.30;;;24.90;93.20;;;;;;5016894;28;20041;-31
2022/08/29 13:04:24;;;;;;;6.57;3.63;;;24.90;93.90;;;;;;5014263;28;20037;-31
2022/08/29 13:06:59;;;;;;;8.65;3.35;;;24.90;94.80;;;;;;4996954;28;20081;-30
2022/08/29 13:09:30;;;;;;;9.73;3.45;;;24.90;94.70;;;;;;4998100;28;20065;-31
2022/08/29 13:12:32;;;;;;;8.68;3.33;;;24.80;94.10;;;;;;4998244;28;20038;-31
2022/08/29 13:15:20;;;;;;;8.27;3.80;;;24.70;94.50;;;;;;4984900;28;20391;-32
2022/08/29 13:17:49;;;;;;;5.60;3.20;;;24.50;95.30;;;;;;5015104;28;20069;-30
2022/08/29 13:20:44;;;;;;;8.27;4.22;;;24.30;95.90;;;;;;4998081;28;20041;-31
2022/08/29 13:23:28;;;;;;;9.27;3.35;;;24.20;97.60;;;;;;4997907;28;20042;-31
2022/08/29 13:26:07;;;;;;;11.25;3.33;;;24.00;98.50;;;;;;4997486;28;20037;-32
2022/08/29 13:28:43;;;;;;;8.48;3.20;;;23.90;98.30;;;;;;4998638;28;20399;-31